To NAV CANADA Home Page Login to a new session Search on AWWS site Feedback and Comments Disclaimer Vers la page française équivalente Tips FAQ What's new on the site To the Forecasts and Observations / NOTAM section To "File a Flight Plan" website Publications and other links Update of the User's profile FIC Telephone Numbers My Weather Data Folder Route Weather Data Regional Weather Data Local Weather Data To the Forecasts and Observations / NOTAM section
Request Generated 08/01/2015 at 22:11:16 UTC . Weather information available at that time is displayed.

METAR/TAF

EUREKA/NU    

METAR CWEU 012200Z 20002KT 15SM FEW050 FEW090 08/03 A3013 RMK SC1AC1 SLP204=
METAR CWEU 012100Z 16005KT 15SM FEW050 FEW090 08/04 A3014 RMK SC1AC1 SLP207=
METAR CWEU 012000Z 15004KT 15SM FEW050 08/03 A3014 RMK SC1 SLP209=

TAF CYEU 011738Z 0118/0202 ADVISORY OFFSITE VRB03KT P6SM SCT050 TEMPO
0118/0120 BKN050
RMK NXT FCST BY 020000Z=
Your time UTC time
Weather data provided by Environment Canada and NAV CANADA